Time;durP1;ratioP1;P1;durP2;ratioP2;P2;SDS_P1;SDS_P2;PMS_P1;PMS_P2;Temp;Humidity;BMP_temperature;BMP_pressure;BME280_temperature;BME280_humidity;BME280_pressure;Samples;Min_cycle;Max_cycle;Signal;HPM_P1;HPM_P2
2022/06/22 08:46:37;;;;;;;38.83;34.97;;;25.20;78.50;;;;;;5084488;23;70431;-74
2022/06/22 08:50:35;;;;;;;10.63;9.57;;;25.60;76.60;;;;;;5066212;28;21003;-75
2022/06/22 08:53:26;;;;;;;10.43;9.43;;;26.30;74.80;;;;;;5022357;28;21103;-75
2022/06/22 08:56:15;;;;;;;31.93;28.77;;;26.70;73.80;;;;;;5019640;28;52484;-72
2022/06/22 08:59:14;;;;;;;20.13;18.23;;;26.90;73.90;;;;;;5020402;28;20463;-73
2022/06/22 09:01:54;;;;;;;23.30;20.90;;;27.00;74.00;;;;;;5020912;28;20588;-73
2022/06/22 09:04:51;;;;;;;22.17;19.97;;;27.10;73.20;;;;;;5026441;28;20552;-73
2022/06/22 09:07:54;;;;;;;23.33;20.80;;;27.10;73.10;;;;;;5016299;28;20461;-75
2022/06/22 09:10:42;;;;;;;24.80;19.53;;;27.10;73.10;;;;;;5007850;28;20899;-73
2022/06/22 09:13:40;;;;;;;22.43;20.23;;;27.10;72.90;;;;;;5019479;28;20468;-73
2022/06/22 09:16:19;;;;;;;23.23;20.80;;;27.00;73.30;;;;;;5015308;28;20481;-74
2022/06/22 09:19:09;;;;;;;34.33;25.33;;;27.00;73.30;;;;;;5001419;28;20473;-75
2022/06/22 09:21:50;;;;;;;28.87;25.90;;;27.00;73.30;;;;;;5009553;28;20986;-74
2022/06/22 09:24:23;;;;;;;27.87;23.87;;;27.00;73.90;;;;;;5007438;28;20452;-72
2022/06/22 09:27:06;;;;;;;24.80;21.60;;;27.00;74.00;;;;;;5010301;28;20463;-73
2022/06/22 09:30:00;;;;;;;19.53;17.40;;;27.00;73.70;;;;;;5036867;28;20512;-74
2022/06/22 09:33:05;;;;;;;22.20;19.90;;;26.90;73.80;;;;;;5003426;28;20519;-74
2022/06/22 09:36:33;;;;;;;18.03;16.20;;;26.90;74.40;;;;;;5008208;28;20522;-73
2022/06/22 09:39:25;;;;;;;15.33;13.83;;;26.90;74.50;;;;;;5007156;28;20482;-73
2022/06/22 09:42:08;;;;;;;14.40;13.10;;;26.90;74.30;;;;;;5002708;28;20461;-74
2022/06/22 09:45:24;;;;;;;18.23;13.80;;;26.90;74.40;;;;;;5007476;28;20559;-74
2022/06/22 09:48:16;;;;;;;13.90;12.57;;;26.90;74.40;;;;;;5003110;28;20519;-75
2022/06/22 09:51:05;;;;;;;14.17;11.53;;;26.90;74.40;;;;;;5018319;28;20940;-75
2022/06/22 09:54:09;;;;;;;13.67;11.70;;;26.90;74.80;;;;;;5004224;28;20463;-74
2022/06/22 09:57:12;;;;;;;16.07;12.73;;;26.90;74.90;;;;;;5002908;28;20457;-73
2022/06/22 10:00:03;;;;;;;14.13;12.27;;;27.00;74.80;;;;;;4999468;28;20470;-74
2022/06/22 10:03:02;;;;;;;16.50;11.17;;;27.00;74.40;;;;;;4988236;28;21171;-74
2022/06/22 10:05:56;;;;;;;13.53;11.80;;;27.00;75.10;;;;;;4987200;28;20872;-73
2022/06/22 10:08:44;;;;;;;15.27;13.87;;;27.00;74.70;;;;;;4992742;28;20449;-74
2022/06/22 10:11:24;;;;;;;14.07;12.77;;;27.00;74.30;;;;;;4996301;28;20496;-79
2022/06/22 10:14:18;;;;;;;14.83;13.27;;;26.90;74.30;;;;;;4989631;28;21131;-75
2022/06/22 10:16:58;;;;;;;15.67;14.17;;;27.00;74.10;;;;;;4988639;28;20549;-74
2022/06/22 10:19:39;;;;;;;14.43;13.00;;;27.00;74.00;;;;;;4988671;28;20538;-74
2022/06/22 10:22:20;;;;;;;15.50;14.03;;;27.10;73.90;;;;;;4993467;28;20450;-74
2022/06/22 10:25:04;;;;;;;15.13;13.77;;;27.10;73.60;;;;;;4990445;28;20472;-75
2022/06/22 10:27:47;;;;;;;16.07;14.50;;;26.90;73.70;;;;;;4991159;28;20589;-75
2022/06/22 10:30:23;;;;;;;16.37;14.90;;;26.90;74.20;;;;;;4990702;28;20471;-76
2022/06/22 10:33:17;;;;;;;15.23;13.60;;;26.90;74.30;;;;;;4990940;28;20457;-77
2022/06/22 10:36:01;;;;;;;16.50;14.80;;;26.80;74.10;;;;;;5015565;28;20533;-75
2022/06/22 10:38:51;;;;;;;15.13;13.63;;;26.70;74.90;;;;;;4988785;28;20874;-76
2022/06/22 10:47:37;;;;;;;15.80;14.27;;;26.60;75.70;;;;;;4981374;28;20489;-75
2022/06/22 10:50:23;;;;;;;15.03;13.53;;;26.60;75.70;;;;;;4985464;28;20571;-77
2022/06/22 10:53:36;;;;;;;17.40;13.67;;;26.50;76.00;;;;;;4987169;28;20466;-76
2022/06/22 10:56:22;;;;;;;14.80;13.40;;;26.50;76.20;;;;;;4988935;28;20531;-75
2022/06/22 10:59:17;;;;;;;13.50;12.27;;;26.30;76.50;;;;;;4990167;28;20463;-75
2022/06/22 11:02:06;;;;;;;15.60;14.10;;;26.10;76.80;;;;;;4986204;28;21130;-75
2022/06/22 11:05:09;;;;;;;15.63;13.93;;;26.00;77.20;;;;;;4989799;28;20506;-76
2022/06/22 11:08:04;;;;;;;15.07;13.20;;;25.90;77.40;;;;;;4985589;28;21010;-77
2022/06/22 11:10:44;;;;;;;13.07;11.77;;;26.00;77.20;;;;;;4987074;28;20543;-76
2022/06/22 11:13:38;;;;;;;13.03;11.47;;;26.10;76.90;;;;;;4981564;28;20505;-75
2022/06/22 11:16:30;;;;;;;13.63;12.13;;;26.00;76.30;;;;;;4986987;28;20551;-76
2022/06/22 11:19:21;;;;;;;12.13;9.13;;;26.00;76.90;;;;;;4983904;28;20560;-81
2022/06/22 11:22:06;;;;;;;10.27;9.23;;;26.00;76.80;;;;;;4990167;28;20513;-76
2022/06/22 11:25:09;;;;;;;11.20;8.23;;;26.40;76.10;;;;;;4987765;28;20552;-79
2022/06/22 11:30:53;;;;;;;7.90;7.20;;;26.90;74.80;;;;;;4989992;28;20513;-79
2022/06/22 11:33:51;;;;;;;15.57;9.50;;;27.00;74.20;;;;;;4989166;28;20447;-77
2022/06/22 11:36:27;;;;;;;8.13;7.33;;;27.20;74.00;;;;;;4986688;28;20528;-77
2022/06/22 11:39:44;;;;;;;9.43;8.00;;;27.30;73.70;;;;;;4988207;28;20549;-77
2022/06/22 11:42:24;;;;;;;7.73;7.03;;;27.30;73.40;;;;;;4984406;28;20847;-76
2022/06/22 11:48:36;;;;;;;7.70;6.90;;;27.40;72.90;;;;;;4988165;28;20460;-77
2022/06/22 11:51:26;;;;;;;13.63;6.90;;;27.50;72.80;;;;;;4993104;28;20506;-78
2022/06/22 11:54:31;;;;;;;7.80;6.97;;;27.60;72.40;;;;;;4983984;28;20458;-80
2022/06/22 11:57:20;;;;;;;15.53;7.20;;;27.70;72.40;;;;;;4943937;29;21006;-77
2022/06/22 12:00:06;;;;;;;11.67;6.70;;;27.70;72.20;;;;;;4987983;28;20482;-79
2022/06/22 12:03:22;;;;;;;13.87;6.67;;;27.80;71.90;;;;;;4989949;28;20470;-79
2022/06/22 12:06:21;;;;;;;6.90;6.20;;;27.90;71.90;;;;;;4968178;28;20478;-80
2022/06/22 12:09:21;;;;;;;7.20;5.83;;;27.90;71.40;;;;;;4987877;28;20960;-78
2022/06/22 12:12:29;;;;;;;16.63;6.17;;;28.00;71.30;;;;;;5004806;28;20458;-79
2022/06/22 12:15:09;;;;;;;7.77;6.20;;;28.10;71.10;;;;;;4984810;28;20468;-78
2022/06/22 12:17:53;;;;;;;6.83;6.23;;;28.20;71.10;;;;;;4989036;28;20493;-78
2022/06/22 12:20:34;;;;;;;7.40;5.67;;;28.20;70.80;;;;;;4986774;28;20505;-77
2022/06/22 12:23:11;;;;;;;8.20;6.27;;;28.20;70.70;;;;;;4986068;28;20488;-78
2022/06/22 12:25:56;;;;;;;6.10;5.50;;;28.30;70.50;;;;;;5007165;28;20491;-81
2022/06/22 12:28:48;;;;;;;7.17;5.73;;;28.30;70.60;;;;;;4980942;28;20466;-78
2022/06/22 12:31:19;;;;;;;9.40;6.10;;;28.40;70.20;;;;;;4982499;28;20478;-79
2022/06/22 12:33:52;;;;;;;8.10;5.77;;;28.40;70.20;;;;;;4985363;28;21354;-80
2022/06/22 12:36:25;;;;;;;6.77;5.70;;;28.50;70.10;;;;;;4986638;28;20542;-78
2022/06/22 12:38:59;;;;;;;7.87;6.03;;;28.50;69.90;;;;;;4988900;28;20841;-77
2022/06/22 12:41:56;;;;;;;6.93;6.00;;;28.60;69.80;;;;;;4991960;28;21021;-79
2022/06/22 12:44:51;;;;;;;11.03;10.03;;;28.60;69.60;;;;;;4981293;28;20487;-80
2022/06/22 12:48:09;;;;;;;10.00;7.70;;;28.50;72.10;;;;;;4989429;28;20789;-79
2022/06/22 12:51:08;;;;;;;8.40;7.37;;;28.20;72.30;;;;;;4984280;28;20962;-80
2022/06/22 12:53:40;;;;;;;8.40;7.60;;;28.00;72.80;;;;;;4989506;28;20458;-81
2022/06/22 12:56:12;;;;;;;8.57;7.40;;;27.80;73.30;;;;;;4998570;28;20477;-79
2022/06/22 12:58:48;;;;;;;7.60;6.87;;;27.70;72.60;;;;;;4987856;28;20447;-79
2022/06/22 13:01:19;;;;;;;9.63;7.07;;;27.50;73.90;;;;;;5021679;28;20467;-78
2022/06/22 13:03:52;;;;;;;7.67;6.87;;;27.30;74.40;;;;;;5002698;28;20464;-78
2022/06/22 13:06:21;;;;;;;9.50;7.40;;;27.20;74.80;;;;;;4990492;28;20465;-80
2022/06/22 13:08:50;;;;;;;6.73;5.90;;;27.20;74.70;;;;;;4990521;28;20449;-78
2022/06/22 13:11:20;;;;;;;11.40;7.50;;;27.20;74.80;;;;;;4990931;28;20480;-79
2022/06/22 13:14:05;;;;;;;8.43;7.63;;;27.20;75.40;;;;;;4988691;28;20456;-78
2022/06/22 13:16:41;;;;;;;8.77;7.37;;;27.20;76.10;;;;;;4991190;28;20493;-78
2022/06/22 13:19:17;;;;;;;10.83;7.50;;;27.20;75.90;;;;;;4991094;28;20503;-79
2022/06/22 13:21:54;;;;;;;7.93;6.70;;;27.20;75.00;;;;;;4990738;28;20517;-78
2022/06/22 13:24:28;;;;;;;8.40;6.90;;;27.20;75.10;;;;;;4985061;28;20794;-78
2022/06/22 13:27:03;;;;;;;10.07;6.03;;;27.20;74.00;;;;;;4985757;28;20935;-78
2022/06/22 13:29:35;;;;;;;8.03;6.00;;;27.30;74.60;;;;;;4989530;28;20448;-80
2022/06/22 13:32:08;;;;;;;8.23;5.60;;;27.30;74.00;;;;;;4989232;28;21031;-78
2022/06/22 13:34:41;;;;;;;9.53;6.37;;;27.30;74.80;;;;;;4988144;28;20444;-80
2022/06/22 13:37:17;;;;;;;7.97;6.30;;;27.30;74.30;;;;;;4992181;28;20497;-76
2022/06/22 13:40:03;;;;;;;5.83;5.30;;;27.30;74.30;;;;;;5025147;28;20457;-77
2022/06/22 13:42:55;;;;;;;9.10;6.13;;;27.40;73.40;;;;;;4992223;28;20454;-81
2022/06/22 13:45:45;;;;;;;7.20;5.30;;;27.40;73.30;;;;;;4991459;28;20511;-78
2022/06/22 13:48:20;;;;;;;10.43;5.10;;;27.40;74.10;;;;;;4997702;28;20502;-79
2022/06/22 13:51:08;;;;;;;4.30;3.90;;;27.50;73.40;;;;;;4997551;28;20583;-78
2022/06/22 13:54:04;;;;;;;7.97;5.57;;;27.70;73.10;;;;;;4997192;28;20450;-78
2022/06/22 13:56:47;;;;;;;8.40;6.13;;;27.70;73.20;;;;;;4994408;28;20457;-77
2022/06/22 13:59:20;;;;;;;5.83;4.90;;;27.70;72.90;;;;;;5000933;28;20488;-79
2022/06/22 14:01:53;;;;;;;4.80;4.20;;;27.70;71.80;;;;;;5000132;28;20519;-78
2022/06/22 14:04:31;;;;;;;8.43;4.10;;;27.70;71.70;;;;;;4998239;28;20457;-77
2022/06/22 14:07:06;;;;;;;6.03;5.00;;;27.80;72.10;;;;;;4993667;28;20481;-79
2022/06/22 14:09:41;;;;;;;5.13;4.50;;;27.80;71.50;;;;;;4997113;28;21105;-78
2022/06/22 14:12:16;;;;;;;8.07;5.27;;;27.80;70.60;;;;;;4990415;28;20505;-79
2022/06/22 14:14:55;;;;;;;5.70;4.63;;;27.90;71.90;;;;;;4993703;28;20454;-78
2022/06/22 14:17:26;;;;;;;6.30;5.20;;;28.10;71.60;;;;;;4992761;28;20810;-77
2022/06/22 14:20:01;;;;;;;8.97;5.13;;;28.20;70.40;;;;;;4993514;28;20453;-79
2022/06/22 14:22:36;;;;;;;9.20;5.10;;;28.30;69.50;;;;;;5009716;28;20505;-82
2022/06/22 14:25:15;;;;;;;6.03;5.17;;;28.30;70.00;;;;;;4992727;28;20757;-79
2022/06/22 14:27:52;;;;;;;7.50;5.00;;;28.30;70.10;;;;;;4989142;28;20480;-80
2022/06/22 14:30:30;;;;;;;6.67;6.03;;;28.20;70.40;;;;;;4992294;28;20479;-79
2022/06/22 14:33:22;;;;;;;8.37;6.60;;;28.20;71.40;;;;;;4994058;28;20960;-80
2022/06/22 14:36:05;;;;;;;14.20;7.37;;;28.30;71.80;;;;;;4993379;28;20455;-80
2022/06/22 14:38:43;;;;;;;7.90;5.90;;;28.30;71.90;;;;;;4988694;28;20458;-81
2022/06/22 14:41:21;;;;;;;10.30;6.73;;;28.30;71.30;;;;;;4994483;28;20442;-78
2022/06/22 14:44:06;;;;;;;9.00;8.13;;;28.30;70.70;;;;;;4988884;28;20449;-79
2022/06/22 14:46:39;;;;;;;10.03;7.90;;;28.30;70.00;;;;;;4994215;28;20459;-76
2022/06/22 14:49:33;;;;;;;7.80;5.17;;;28.30;70.40;;;;;;5007568;28;20992;-77
2022/06/22 14:52:10;;;;;;;9.60;7.07;;;28.30;69.80;;;;;;4993535;28;20833;-77
2022/06/22 14:54:46;;;;;;;10.50;7.13;;;28.30;70.10;;;;;;4990508;28;20470;-81
2022/06/22 14:57:22;;;;;;;9.57;6.83;;;28.20;70.90;;;;;;4991627;28;20459;-77
2022/06/22 15:00:07;;;;;;;10.47;6.80;;;28.10;70.70;;;;;;4989726;28;20492;-77
2022/06/22 15:02:44;;;;;;;8.97;5.77;;;28.00;70.00;;;;;;4993120;28;20448;-79
2022/06/22 15:05:18;;;;;;;6.70;4.57;;;27.90;69.80;;;;;;4993022;28;20605;-76
2022/06/22 15:07:54;;;;;;;4.90;3.70;;;27.90;71.10;;;;;;4990898;28;20504;-79
2022/06/22 15:10:28;;;;;;;7.43;6.70;;;27.90;71.00;;;;;;4994154;28;20472;-78
2022/06/22 15:13:04;;;;;;;11.33;7.40;;;28.00;70.90;;;;;;4985697;28;20490;-78
2022/06/22 15:15:42;;;;;;;7.80;6.80;;;28.00;70.90;;;;;;4988813;28;20525;-81
2022/06/22 15:18:50;;;;;;;11.10;6.27;;;28.00;71.50;;;;;;5002509;28;20556;-80
2022/06/22 15:21:24;;;;;;;7.13;6.50;;;28.00;71.80;;;;;;4988565;28;20892;-78
2022/06/22 15:24:21;;;;;;;10.73;6.27;;;28.00;71.20;;;;;;4987469;28;20502;-78
2022/06/22 15:26:57;;;;;;;8.93;5.70;;;28.10;71.90;;;;;;5005876;28;20478;-79
2022/06/22 15:29:31;;;;;;;7.93;5.67;;;28.20;71.30;;;;;;4991637;28;20931;-79
2022/06/22 15:32:07;;;;;;;12.13;6.10;;;28.20;71.20;;;;;;4989738;28;20924;-77
2022/06/22 15:34:44;;;;;;;7.27;5.97;;;28.20;70.20;;;;;;4988094;28;20458;-77
2022/06/22 15:37:37;;;;;;;8.63;6.63;;;28.10;70.30;;;;;;5007120;28;20457;-78
2022/06/22 15:40:27;;;;;;;9.73;6.97;;;27.80;70.20;;;;;;4988825;28;20466;-77
2022/06/22 15:43:14;;;;;;;10.70;7.20;;;27.80;70.70;;;;;;4992012;28;20803;-76
2022/06/22 15:45:50;;;;;;;6.17;5.57;;;27.70;70.90;;;;;;4992070;28;20468;-78
2022/06/22 15:48:30;;;;;;;12.93;7.17;;;27.60;71.10;;;;;;4984367;28;20501;-79
2022/06/22 15:51:19;;;;;;;7.80;5.57;;;27.60;71.30;;;;;;5018291;28;20528;-78
2022/06/22 15:53:55;;;;;;;9.17;5.60;;;27.60;71.40;;;;;;5000049;28;20571;-79
2022/06/22 15:56:31;;;;;;;8.13;4.77;;;27.60;71.00;;;;;;4988452;28;20851;-79
2022/06/22 15:59:06;;;;;;;8.63;5.87;;;27.60;72.00;;;;;;4987321;28;20454;-78
2022/06/22 16:01:42;;;;;;;7.93;4.67;;;27.70;71.10;;;;;;4983296;28;20498;-78
2022/06/22 16:04:26;;;;;;;6.40;5.10;;;27.60;71.10;;;;;;4982333;28;20462;-78
2022/06/22 16:07:00;;;;;;;8.70;4.30;;;27.50;70.80;;;;;;4980640;28;20465;-77
2022/06/22 16:09:39;;;;;;;11.80;6.10;;;27.50;71.40;;;;;;5000148;28;20459;-78
2022/06/22 16:15:08;;;;;;;4.73;3.80;;;27.20;72.00;;;;;;4986816;28;20485;-77
2022/06/22 16:17:44;;;;;;;11.00;5.20;;;27.30;72.00;;;;;;4988615;28;20486;-78
2022/06/22 16:20:17;;;;;;;8.17;5.10;;;27.30;71.70;;;;;;4990949;28;20516;-78
2022/06/22 16:22:49;;;;;;;8.93;4.97;;;27.30;71.70;;;;;;4990537;28;20901;-78
2022/06/22 16:25:22;;;;;;;11.13;5.60;;;27.20;70.90;;;;;;4991683;28;20468;-77
2022/06/22 16:27:56;;;;;;;6.30;4.83;;;27.10;71.90;;;;;;4989308;28;20459;-77
2022/06/22 16:30:46;;;;;;;9.83;5.87;;;27.00;72.10;;;;;;4987635;28;20851;-78
2022/06/22 16:33:21;;;;;;;7.70;4.90;;;27.00;71.90;;;;;;4988444;28;20576;-77
2022/06/22 16:35:54;;;;;;;7.67;5.40;;;26.90;72.70;;;;;;4990088;28;20464;-77
2022/06/22 16:38:35;;;;;;;8.70;5.30;;;26.80;73.20;;;;;;4987086;28;20505;-77
2022/06/22 16:41:12;;;;;;;10.70;5.30;;;26.80;73.30;;;;;;4993077;28;20455;-80
2022/06/22 16:44:07;;;;;;;10.17;6.13;;;26.70;73.70;;;;;;4989241;28;20568;-77
2022/06/22 16:46:48;;;;;;;7.80;5.33;;;26.70;73.40;;;;;;4989369;28;20454;-77
2022/06/22 16:49:22;;;;;;;6.17;5.13;;;26.60;73.20;;;;;;4993777;28;20500;-77
2022/06/22 16:52:00;;;;;;;9.20;5.97;;;26.60;73.80;;;;;;4992859;28;21193;-78
2022/06/22 16:54:34;;;;;;;6.00;4.33;;;26.70;73.80;;;;;;4990216;28;20478;-78
2022/06/22 16:57:06;;;;;;;6.93;3.70;;;26.80;73.20;;;;;;4991252;28;20476;-78
2022/06/22 16:59:44;;;;;;;9.10;4.70;;;26.90;73.10;;;;;;4984876;28;20454;-78
2022/06/22 17:02:35;;;;;;;7.17;4.10;;;27.10;72.50;;;;;;4990610;28;20504;-79
2022/06/22 17:05:16;;;;;;;8.37;4.33;;;27.20;71.90;;;;;;4991224;28;20454;-77
2022/06/22 17:07:54;;;;;;;6.87;4.87;;;27.30;71.90;;;;;;4992733;28;20469;-82
2022/06/22 17:10:32;;;;;;;9.27;4.40;;;27.40;71.10;;;;;;4989535;28;20973;-78
2022/06/22 17:13:03;;;;;;;7.23;3.83;;;27.50;70.80;;;;;;4987537;28;20544;-80
2022/06/22 17:15:45;;;;;;;7.17;4.07;;;27.50;71.00;;;;;;4989096;28;20450;-78
2022/06/22 17:18:24;;;;;;;6.97;4.50;;;27.60;70.90;;;;;;4991831;28;20482;-79
2022/06/22 17:21:10;;;;;;;9.90;4.33;;;27.70;70.30;;;;;;4993900;28;20465;-79
2022/06/22 17:23:44;;;;;;;8.23;4.47;;;27.80;70.20;;;;;;4985512;28;20788;-79
2022/06/22 17:26:20;;;;;;;7.23;5.50;;;27.80;69.90;;;;;;4988282;28;20451;-79
2022/06/22 17:28:55;;;;;;;11.97;5.53;;;27.70;70.00;;;;;;4988530;28;20446;-78
2022/06/22 17:31:34;;;;;;;9.23;6.10;;;27.50;70.50;;;;;;4988292;28;20462;-80
2022/06/22 17:34:12;;;;;;;13.10;4.20;;;27.50;70.80;;;;;;5019586;28;20530;-79
2022/06/22 17:36:56;;;;;;;6.80;4.00;;;27.40;70.90;;;;;;4992745;28;20941;-79
2022/06/22 17:39:49;;;;;;;8.33;4.07;;;27.40;71.00;;;;;;4991951;28;20810;-78
2022/06/22 17:42:25;;;;;;;11.37;4.03;;;27.50;70.80;;;;;;4993360;28;20452;-77
2022/06/22 17:45:04;;;;;;;8.73;4.50;;;27.60;70.60;;;;;;4991142;28;20507;-77
2022/06/22 17:47:38;;;;;;;4.60;3.50;;;27.70;70.30;;;;;;4991030;28;20459;-78
2022/06/22 17:50:19;;;;;;;5.80;4.07;;;27.80;70.20;;;;;;4991970;28;20939;-77
2022/06/22 17:52:50;;;;;;;5.67;3.80;;;27.90;70.00;;;;;;4989705;28;20508;-78
2022/06/22 17:55:24;;;;;;;9.20;3.70;;;27.90;69.70;;;;;;4991337;28;20475;-77
2022/06/22 17:57:56;;;;;;;10.57;4.37;;;28.00;69.70;;;;;;4991631;28;20488;-81
2022/06/22 18:00:29;;;;;;;9.37;5.17;;;28.00;69.50;;;;;;4992946;28;20461;-82
2022/06/22 18:03:08;;;;;;;11.30;5.10;;;28.10;70.50;;;;;;4992903;28;20915;-82
2022/06/22 18:05:52;;;;;;;6.23;4.80;;;28.00;70.50;;;;;;4996004;28;20489;-77
2022/06/22 18:08:46;;;;;;;6.30;4.40;;;28.00;70.80;;;;;;5005097;28;20447;-76
2022/06/22 18:11:25;;;;;;;7.53;4.83;;;27.90;70.90;;;;;;4989062;28;20514;-76
2022/06/22 18:13:57;;;;;;;7.73;4.40;;;27.80;71.10;;;;;;4989168;28;20474;-81
2022/06/22 18:16:29;;;;;;;6.90;5.17;;;27.70;71.30;;;;;;4989190;28;20536;-77
2022/06/22 18:19:00;;;;;;;12.53;5.60;;;27.50;71.90;;;;;;4986866;28;20533;-78
2022/06/22 18:21:32;;;;;;;9.53;4.63;;;27.40;71.80;;;;;;4986715;28;20508;-83
2022/06/22 18:24:06;;;;;;;13.63;5.63;;;27.40;72.20;;;;;;4992504;28;20852;-77
2022/06/22 18:26:43;;;;;;;9.03;6.10;;;27.30;72.80;;;;;;4995694;28;20460;-77
2022/06/22 18:29:18;;;;;;;8.50;4.60;;;27.20;72.70;;;;;;5005871;28;20465;-76
2022/06/22 18:31:51;;;;;;;7.40;4.13;;;27.20;72.60;;;;;;4997051;28;20503;-75
2022/06/22 18:34:33;;;;;;;9.27;6.37;;;27.20;72.40;;;;;;4996691;28;20668;-76
2022/06/22 18:37:14;;;;;;;6.33;5.10;;;27.10;72.50;;;;;;5004552;28;20532;-76
2022/06/22 18:42:45;;;;;;;10.47;4.97;;;27.10;72.20;;;;;;4958340;28;20469;-77
2022/06/22 18:45:22;;;;;;;5.97;4.30;;;27.00;72.20;;;;;;4993962;28;20441;-77
2022/06/22 18:47:57;;;;;;;7.07;5.00;;;27.00;72.20;;;;;;5005764;28;20799;-77
2022/06/22 18:50:38;;;;;;;9.13;5.00;;;27.00;72.10;;;;;;4991202;28;20476;-77
2022/06/22 18:53:12;;;;;;;9.70;5.03;;;26.90;72.40;;;;;;4988204;28;20594;-75
2022/06/22 18:55:49;;;;;;;9.33;5.27;;;26.90;73.00;;;;;;4989129;28;20528;-83
2022/06/22 18:58:20;;;;;;;10.97;4.67;;;26.80;73.30;;;;;;4994154;28;20519;-76
2022/06/22 19:00:52;;;;;;;8.93;5.13;;;26.80;73.40;;;;;;4990580;28;20446;-76
2022/06/22 19:03:24;;;;;;;10.73;5.50;;;26.80;73.40;;;;;;4993195;28;20456;-76
2022/06/22 19:06:04;;;;;;;8.43;5.20;;;26.80;73.00;;;;;;5003293;28;20951;-77
2022/06/22 19:08:36;;;;;;;9.27;5.30;;;26.80;73.50;;;;;;4991045;28;20965;-77
2022/06/22 19:11:13;;;;;;;7.40;6.00;;;26.80;73.70;;;;;;4988357;28;20508;-76
2022/06/22 19:13:45;;;;;;;10.10;5.90;;;26.70;74.10;;;;;;4993800;28;21019;-79
2022/06/22 19:16:21;;;;;;;10.00;6.17;;;26.50;74.70;;;;;;4991759;28;20476;-79
2022/06/22 19:19:10;;;;;;;11.20;5.93;;;26.50;75.00;;;;;;4992906;28;20546;-76
2022/06/22 19:21:50;;;;;;;6.90;5.60;;;26.50;74.50;;;;;;4992805;28;20466;-78
2022/06/22 19:24:33;;;;;;;14.50;6.93;;;26.40;74.90;;;;;;4990134;28;20471;-76
2022/06/22 19:27:04;;;;;;;12.10;6.27;;;26.40;75.20;;;;;;4990856;28;20460;-78
2022/06/22 19:29:35;;;;;;;13.70;6.33;;;26.40;75.30;;;;;;4987044;28;20468;-77
2022/06/22 19:32:22;;;;;;;8.30;5.30;;;26.40;75.30;;;;;;4991166;28;20488;-76
2022/06/22 19:35:02;;;;;;;12.00;6.03;;;26.40;75.60;;;;;;4991027;28;20906;-76
2022/06/22 19:37:39;;;;;;;7.10;5.80;;;26.50;75.40;;;;;;4985202;28;20462;-76
2022/06/22 19:40:17;;;;;;;10.80;6.67;;;26.50;75.40;;;;;;4983324;28;20464;-76
2022/06/22 19:42:59;;;;;;;8.03;6.10;;;26.60;74.90;;;;;;4991572;28;20449;-78
2022/06/22 19:45:42;;;;;;;7.37;6.17;;;26.60;74.70;;;;;;4988490;28;20462;-78
2022/06/22 19:48:19;;;;;;;12.87;7.70;;;26.70;74.40;;;;;;4986066;28;20491;-79
2022/06/22 19:51:07;;;;;;;11.47;8.07;;;26.80;74.60;;;;;;4987517;28;20457;-77
2022/06/22 19:53:44;;;;;;;10.83;6.47;;;26.70;74.90;;;;;;4988417;28;20529;-80
2022/06/22 19:56:23;;;;;;;10.17;6.27;;;26.70;75.10;;;;;;4992419;28;20457;-78
2022/06/22 19:58:52;;;;;;;11.90;6.73;;;26.60;75.50;;;;;;4988720;28;20453;-77
2022/06/22 20:01:24;;;;;;;10.87;6.73;;;26.60;76.00;;;;;;4990058;28;20527;-77
2022/06/22 20:04:07;;;;;;;9.17;6.00;;;26.50;76.00;;;;;;4990851;28;20495;-77
2022/06/22 20:06:40;;;;;;;13.73;7.47;;;26.50;75.70;;;;;;4989432;28;20535;-77
2022/06/22 20:09:21;;;;;;;13.63;6.87;;;26.40;75.80;;;;;;4987055;28;20522;-75
2022/06/22 20:11:52;;;;;;;11.43;7.47;;;26.40;75.20;;;;;;4992230;28;20440;-76
2022/06/22 20:14:32;;;;;;;7.13;5.47;;;26.40;75.40;;;;;;4993026;28;20513;-75
2022/06/22 20:17:07;;;;;;;5.23;3.67;;;26.40;75.50;;;;;;4988398;28;20527;-79
2022/06/22 20:19:36;;;;;;;11.43;5.27;;;26.40;75.40;;;;;;4990314;28;20459;-76
2022/06/22 20:22:13;;;;;;;7.60;4.90;;;26.60;74.80;;;;;;4991648;28;20467;-76
2022/06/22 20:24:50;;;;;;;10.77;5.60;;;26.70;74.60;;;;;;4985982;28;20871;-76
2022/06/22 20:27:33;;;;;;;5.30;3.50;;;26.80;74.40;;;;;;4988393;28;20459;-76
2022/06/22 20:30:05;;;;;;;8.43;5.70;;;26.80;74.00;;;;;;4991014;28;20507;-76
2022/06/22 20:32:44;;;;;;;7.97;4.67;;;27.00;73.50;;;;;;4991175;28;20943;-76
2022/06/22 20:35:32;;;;;;;11.90;4.87;;;27.10;73.30;;;;;;5023317;28;20469;-75
2022/06/22 20:38:02;;;;;;;8.77;5.53;;;27.10;73.60;;;;;;4990230;28;20523;-77
2022/06/22 20:40:43;;;;;;;7.70;6.10;;;27.00;73.80;;;;;;4992745;28;20551;-76
2022/06/22 20:43:28;;;;;;;12.90;6.00;;;26.90;73.80;;;;;;4994912;28;20841;-78
2022/06/22 20:46:05;;;;;;;10.77;4.50;;;26.90;73.80;;;;;;4986317;28;20538;-77
2022/06/22 20:48:44;;;;;;;6.07;4.90;;;27.00;73.40;;;;;;4986191;28;21187;-84
2022/06/22 20:51:20;;;;;;;6.50;4.80;;;27.00;73.40;;;;;;4988169;28;20560;-77
2022/06/22 20:53:53;;;;;;;5.10;3.43;;;27.00;73.50;;;;;;4988906;28;20551;-77
2022/06/22 20:56:28;;;;;;;7.73;4.60;;;27.00;73.20;;;;;;4990831;28;20485;-76
2022/06/22 20:59:00;;;;;;;8.73;4.13;;;27.20;73.00;;;;;;4987576;28;20488;-76
2022/06/22 21:01:28;;;;;;;9.37;3.80;;;27.30;72.50;;;;;;4987968;28;20963;-77
2022/06/22 21:04:04;;;;;;;9.13;4.57;;;27.40;72.50;;;;;;4991725;28;20457;-76
2022/06/22 21:06:37;;;;;;;8.13;4.10;;;27.40;72.80;;;;;;4990568;28;20452;-75
2022/06/22 21:09:10;;;;;;;8.87;4.00;;;27.30;72.90;;;;;;4985297;28;20450;-76
2022/06/22 21:11:41;;;;;;;7.90;6.07;;;27.30;72.80;;;;;;4990259;28;20849;-76
2022/06/22 21:14:23;;;;;;;7.27;5.50;;;27.20;73.30;;;;;;4990331;28;21067;-75
2022/06/22 21:17:21;;;;;;;8.97;5.77;;;27.10;73.80;;;;;;4991558;28;20578;-75
2022/06/22 21:19:56;;;;;;;5.70;5.00;;;26.80;74.20;;;;;;4993201;28;20448;-75
2022/06/22 21:22:28;;;;;;;14.27;5.80;;;26.70;74.90;;;;;;5007129;28;20471;-75
2022/06/22 21:25:33;;;;;;;6.80;6.10;;;26.60;75.20;;;;;;4992727;28;20454;-78
2022/06/22 21:28:33;;;;;;;11.67;5.90;;;26.40;75.30;;;;;;4992768;28;21917;-75
2022/06/22 21:31:11;;;;;;;9.03;6.23;;;26.30;75.70;;;;;;4989828;28;21000;-75
2022/06/22 21:33:52;;;;;;;7.33;6.53;;;26.10;76.20;;;;;;4992991;28;20443;-76
2022/06/22 21:36:22;;;;;;;16.23;7.50;;;25.90;76.90;;;;;;4987650;28;20479;-75
2022/06/22 21:39:02;;;;;;;10.60;7.53;;;25.70;77.40;;;;;;4989081;28;20450;-75
2022/06/22 21:41:41;;;;;;;11.30;7.47;;;25.50;78.00;;;;;;4987764;28;20545;-77
2022/06/22 21:44:44;;;;;;;10.40;6.90;;;25.40;78.50;;;;;;4984124;28;20449;-79
2022/06/22 21:47:29;;;;;;;11.47;7.37;;;25.20;79.10;;;;;;4988124;28;20803;-75
2022/06/22 21:50:17;;;;;;;10.37;7.47;;;25.00;79.70;;;;;;4987246;28;20525;-75
2022/06/22 21:53:03;;;;;;;13.83;6.93;;;24.80;80.30;;;;;;4988136;28;20450;-76
2022/06/22 21:55:39;;;;;;;16.27;7.33;;;24.60;81.10;;;;;;4989071;28;20483;-85
2022/06/22 21:58:30;;;;;;;11.50;7.20;;;24.60;81.20;;;;;;4990120;28;20467;-75
2022/06/22 22:01:09;;;;;;;9.73;7.47;;;24.60;81.10;;;;;;4993898;28;20526;-76
2022/06/22 22:03:44;;;;;;;12.97;7.57;;;24.60;81.10;;;;;;4994938;28;20460;-74
2022/06/22 22:06:19;;;;;;;9.63;6.47;;;24.70;80.80;;;;;;4988131;28;20856;-75
2022/06/22 22:09:08;;;;;;;12.33;6.50;;;24.70;80.50;;;;;;4991364;28;20463;-75
2022/06/22 22:11:47;;;;;;;9.23;6.17;;;24.80;80.30;;;;;;5019590;28;20519;-84
2022/06/22 22:14:19;;;;;;;9.80;6.87;;;24.90;80.20;;;;;;4985765;28;20456;-78
2022/06/22 22:16:53;;;;;;;10.43;7.87;;;24.90;80.20;;;;;;4991520;28;20642;-77
2022/06/22 22:19:24;;;;;;;11.10;6.83;;;25.00;80.00;;;;;;4992695;28;20878;-75
2022/06/22 22:21:56;;;;;;;13.57;8.03;;;25.00;79.90;;;;;;4986774;28;20463;-75
2022/06/22 22:24:32;;;;;;;10.10;6.90;;;25.00;79.90;;;;;;4983025;28;20469;-75
2022/06/22 22:27:03;;;;;;;13.40;6.90;;;25.00;80.10;;;;;;4987992;28;21002;-75
2022/06/22 22:29:36;;;;;;;11.63;6.93;;;24.90;80.40;;;;;;4986496;28;20898;-76
2022/06/22 22:32:06;;;;;;;12.33;7.27;;;24.80;80.50;;;;;;4990144;28;20481;-76
2022/06/22 22:34:35;;;;;;;14.93;7.00;;;24.80;80.40;;;;;;4986015;28;20508;-76
2022/06/22 22:37:04;;;;;;;8.83;7.20;;;24.70;80.60;;;;;;4984988;28;20485;-75
2022/06/22 22:39:36;;;;;;;12.23;8.83;;;24.70;80.60;;;;;;4990792;28;20490;-76
2022/06/22 22:42:09;;;;;;;15.47;7.17;;;24.70;80.70;;;;;;4993296;28;20444;-76
2022/06/22 22:44:41;;;;;;;11.60;8.50;;;24.70;80.70;;;;;;4991157;28;20547;-76
2022/06/22 22:47:21;;;;;;;11.63;7.93;;;24.80;80.40;;;;;;4990166;28;20473;-76
2022/06/22 22:49:51;;;;;;;10.97;7.60;;;24.80;80.30;;;;;;4998976;28;20591;-78
2022/06/22 22:52:28;;;;;;;11.33;7.70;;;24.70;80.50;;;;;;4995822;28;20451;-78
2022/06/22 22:55:01;;;;;;;16.90;8.70;;;24.70;80.40;;;;;;4993271;28;20452;-76
2022/06/22 22:57:36;;;;;;;9.67;8.30;;;24.80;80.30;;;;;;4993892;28;20548;-76